Araquari, Brazil
Current Conditions -  °F | °C
As of 4:00 PM on Tuesday 21 Oct 2014 (Local Time) from SBJV Reporting Station
Broken Clouds Broken Clouds  
Wind Chill: 70°   Ceiling: 3500
Heat Index: 70°   Visibility: 6mi
Dew Point: 61°   Wind: 8mph
Humidity: 73%   Direction: 70°ENE
Pressure: 30.15"   Gusts: NA
Location:  26.37°S, 48.72°W
Report Text: SBJV 211800Z 07007KT 9999 FEW018 SCT020 BKN035 21/16 Q1021
Loading
Personal Weather Stations






























Interactive Weather Map
Tropical Storm Tracking
New forecast layout! Learn more

10-Day Weather Forecast

Advertisements
Track Severe Weather on mobile